Valhermoso Springs, Alabama
Current Conditions -  °F | °C
As of 4:53 PM on Thursday 18 Dec 2014 (Local Time) from KHSV Reporting Station
Overcast Overcast  
Wind Chill: 45°   Ceiling: 4400
Heat Index: 45°   Visibility: 10mi
Dew Point: 35°   Wind: 0mph
Humidity: 68%   Direction: NA
Pressure: 30.17"   Gusts: NA
Location:  34.5°N, 86.69°W
Report Text: KHSV 182253Z 00000KT 10SM OVC044 07/02 A3017 RMK AO2 SLP218 T00720017
Loading
Personal Weather Stations






























Interactive Weather Map New forecast layout! Learn more

10-Day Weather Forecast

Advertisements
Track Severe Weather on mobile